»·PEaware :: N844DF KSAN-L80

N844DF :: KSAN-L80

FLIGHT INFORMATION

Flight Status: Arrived
Operator: Privately registered:
United States
More flights under this callsign
Pilot: John C. (9438)
Aircraft: BEECH AIRCRAFT BARON
(BE58)
More flights by this aircraft type
Origin: KSAN San Diego Intl-Lindbergh
United States
Destination: L80 Hi Desert
United States
More flights between these airports :: More routes between these airports
Route: +
File this flight plan on PilotEdge
Remarks:
Altitude:
(Current/Filed)
7,500ft
Speed:
(Current/Filed)
170kts
Departed: 09-Oct-17 10:57 AM
Arrived: 09-Oct-17 11:50 AM
Distance/Time
Traveled:
97nm/0:53
Distance/Time
To Go:
Arrived

Flight Plot

Page will automatically refresh every two minutes.


Map Options




Map Legend


Flown Route
Filed Route
Departure Airport
Arrival Airport
Navaid (VOR, NDB)
Fix

Horizontal Profiles

Position Reports

Time Latitude Longitude Heading Altitude Ground
Speed
09-Oct-17 10:47 32.732324 -117.176259 194 20ft 0kts
09-Oct-17 10:48 32.732324 -117.176259 194 20ft 0kts
09-Oct-17 10:50 32.732324 -117.176259 194 20ft 0kts
09-Oct-17 10:51 32.732324 -117.176259 194 20ft 0kts
09-Oct-17 10:52 32.732324 -117.176259 194 20ft 0kts
09-Oct-17 10:53 32.732324 -117.176259 194 20ft 0kts
09-Oct-17 10:54 32.732324 -117.176259 194 20ft 0kts
09-Oct-17 10:55 32.732324 -117.176259 194 20ft 0kts
09-Oct-17 10:56 32.732324 -117.176259 194 20ft 0kts
09-Oct-17 10:57 32.732324 -117.176259 194 20ft 0kts
09-Oct-17 10:58 32.732324 -117.176259 194 20ft 0kts
09-Oct-17 10:59 32.732324 -117.176259 194 20ft 0kts
09-Oct-17 11:00 32.730806 -117.175357 153 20ft 0kts
09-Oct-17 11:01 32.730215 -117.175849 280 20ft 18kts
09-Oct-17 11:02 32.738586 -117.206987 297 597ft 142kts
09-Oct-17 11:03 32.773848 -117.241536 321 1330ft 173kts
09-Oct-17 11:04 32.811686 -117.277489 321 2028ft 175kts
09-Oct-17 11:05 32.849575 -117.313790 321 2719ft 172kts
09-Oct-17 11:06 32.892140 -117.329269 9 3399ft 165kts
09-Oct-17 11:07 32.939603 -117.317455 12 3479ft 182kts
09-Oct-17 11:08 32.988083 -117.304930 11 3811ft 172kts
09-Oct-17 11:09 33.029158 -117.278622 31 4389ft 169kts
09-Oct-17 11:09 33.059664 -117.249294 51 4884ft 172kts
09-Oct-17 11:10 33.085733 -117.201489 61 5458ft 174kts
09-Oct-17 11:12 33.107627 -117.143230 61 5510ft 191kts
09-Oct-17 11:12 33.122693 -117.100028 62 5670ft 176kts
09-Oct-17 11:14 33.146408 -117.043016 62 6241ft 162kts
09-Oct-17 11:15 33.166535 -116.995121 71 6740ft 162kts
09-Oct-17 11:16 33.182217 -116.944650 71 7238ft 161kts
09-Oct-17 11:16 33.195319 -116.902450 71 7523ft 167kts
09-Oct-17 11:18 33.208216 -116.837022 81 7524ft 183kts
09-Oct-17 11:18 33.213162 -116.785811 81 7547ft 190kts
09-Oct-17 11:19 33.219979 -116.722869 81 7632ft 194kts
09-Oct-17 11:20 33.227181 -116.658108 81 7630ft 197kts
09-Oct-17 11:21 33.229650 -116.592634 86 7622ft 199kts
09-Oct-17 11:22 33.229682 -116.525552 82 7576ft 201kts
09-Oct-17 11:23 33.234660 -116.459003 81 7577ft 201kts
09-Oct-17 11:24 33.241951 -116.392954 72 7516ft 201kts
09-Oct-17 11:25 33.257649 -116.329386 66 7511ft 198kts
09-Oct-17 11:26 33.276246 -116.267403 66 7511ft 197kts
09-Oct-17 11:27 33.298390 -116.207856 60 7512ft 196kts
09-Oct-17 11:28 33.328256 -116.153888 51 7512ft 194kts
09-Oct-17 11:29 33.365751 -116.109969 31 7512ft 189kts
09-Oct-17 11:30 33.415121 -116.102379 347 7513ft 181kts
09-Oct-17 11:31 33.462818 -116.120091 331 7512ft 180kts
09-Oct-17 11:32 33.507387 -116.147883 331 7511ft 180kts
09-Oct-17 11:33 33.552141 -116.175714 334 7428ft 184kts
09-Oct-17 11:34 33.600774 -116.194022 341 7419ft 182kts
09-Oct-17 11:35 33.648939 -116.211470 341 7419ft 181kts
09-Oct-17 11:36 33.697345 -116.228994 341 7419ft 181kts
09-Oct-17 11:37 33.744003 -116.251072 331 7419ft 180kts
09-Oct-17 11:38 33.783908 -116.287581 321 7419ft 180kts
09-Oct-17 11:39 33.824829 -116.321944 326 7526ft 178kts
09-Oct-17 11:40 33.866423 -116.356534 323 7269ft 187kts
09-Oct-17 11:41 33.906168 -116.397451 321 6669ft 189kts
09-Oct-17 11:42 33.946500 -116.438851 311 6062ft 192kts
09-Oct-17 11:43 33.982279 -116.487720 311 5494ft 196kts
09-Oct-17 11:44 34.022592 -116.527023 322 5560ft 177kts
09-Oct-17 11:45 34.065618 -116.547966 5 5581ft 175kts
09-Oct-17 11:46 34.100164 -116.507606 52 5581ft 180kts
09-Oct-17 11:47 34.123572 -116.451882 62 5106ft 190kts
09-Oct-17 11:48 34.146035 -116.394484 62 4485ft 178kts
09-Oct-17 11:49 34.158052 -116.341090 93 3811ft 161kts
09-Oct-17 11:50 34.151123 -116.294523 96 3478ft 125kts
09-Oct-17 11:51 34.150532 -116.253668 82 2797ft 114kts
09-Oct-17 11:52 34.155130 -116.219960 23 3186ft 97kts
09-Oct-17 11:53 34.155859 -116.237686 252 2665ft 100kts
09-Oct-17 11:54 34.153408 -116.255413 65 2466ft 6kts
09-Oct-17 11:55 34.153444 -116.255321 64 2466ft 0kts
09-Oct-17 11:56 34.153444 -116.255321 63 2466ft 0kts
09-Oct-17 11:57 34.153444 -116.255321 63 2466ft 0kts
09-Oct-17 11:58 34.153444 -116.255321 63 2466ft 0kts
09-Oct-17 12:08 34.154341 -116.248884 138 2466ft 0kts

Navigation Log

Ident Type
Flight plan parsing failed, navigation log unavailable